Time;durP1;ratioP1;P1;durP2;ratioP2;P2;SDS_P1;SDS_P2;PMS_P1;PMS_P2;Temp;Humidity;BMP_temperature;BMP_pressure;BME280_temperature;BME280_humidity;BME280_pressure;Samples;Min_cycle;Max_cycle;Signal;HPM_P1;HPM_P2
2023/01/25 00:00:38;;;;;;;84.47;25.07;;;;;;;0.47;100.00;97033.00;5047901;28;20222;-79
2023/01/25 00:03:03;;;;;;;82.27;24.43;;;;;;;0.48;100.00;97027.00;5042237;28;20724;-80
2023/01/25 00:05:28;;;;;;;48.47;22.73;;;;;;;0.52;100.00;97023.44;5051193;28;20193;-80
2023/01/25 00:07:54;;;;;;;96.57;24.03;;;;;;;0.52;100.00;97018.34;5051187;28;20204;-79
2023/01/25 00:10:19;;;;;;;98.87;25.67;;;;;;;0.36;100.00;97017.19;5048665;28;20221;-78
2023/01/25 00:12:45;;;;;;;66.67;23.70;;;;;;;0.50;100.00;97025.22;5044802;28;20181;-80
2023/01/25 00:15:10;;;;;;;49.60;21.30;;;;;;;0.56;100.00;97023.31;5056046;28;20745;-79
2023/01/25 00:17:36;;;;;;;43.03;22.43;;;;;;;0.61;100.00;97020.59;5043262;28;20182;-79
2023/01/25 00:20:01;;;;;;;71.10;24.50;;;;;;;0.44;100.00;97010.09;5042618;28;20217;-80
2023/01/25 00:22:29;;;;;;;56.83;25.03;;;;;;;0.51;100.00;97021.78;5047595;28;20711;-79
2023/01/25 00:24:54;;;;;;;76.60;25.10;;;;;;;0.36;100.00;97014.66;5035782;28;20674;-80
2023/01/25 00:27:20;;;;;;;73.10;24.53;;;;;;;0.45;100.00;97019.44;5037173;28;20248;-79
2023/01/25 00:29:45;;;;;;;59.67;24.50;;;;;;;0.52;100.00;97018.34;5026479;28;20205;-80
2023/01/25 00:32:13;;;;;;;74.93;25.70;;;;;;;0.57;100.00;97013.94;5048094;28;20189;-80
2023/01/25 00:34:47;;;;;;;265.23;34.33;;;;;;;0.45;100.00;97012.63;5043379;28;20237;-80
2023/01/25 00:37:19;;;;;;;60.43;26.20;;;;;;;0.53;100.00;97013.19;5042950;28;20284;-78
2023/01/25 00:39:44;;;;;;;387.33;41.33;;;;;;;0.39;100.00;97009.41;5045500;28;20236;-80
2023/01/25 00:42:10;;;;;;;487.03;45.70;;;;;;;0.34;100.00;96998.50;5050636;28;20235;-80
2023/01/25 00:44:36;;;;;;;65.13;25.30;;;;;;;0.50;100.00;96994.56;5041736;28;20209;-78
2023/01/25 00:47:02;;;;;;;113.23;24.93;;;;;;;0.54;100.00;96989.31;5051519;28;20185;-80
2023/01/25 00:49:29;;;;;;;186.57;31.53;;;;;;;0.43;100.00;96991.38;5044457;28;20231;-80
2023/01/25 00:51:55;;;;;;;123.30;26.20;;;;;;;0.52;100.00;96987.66;5045829;28;20239;-78
2023/01/25 00:54:21;;;;;;;182.80;30.57;;;;;;;0.53;100.00;96990.19;5021733;28;20190;-79
2023/01/25 00:56:47;;;;;;;231.30;32.53;;;;;;;0.34;100.00;96993.38;5044414;28;20197;-80
2023/01/25 00:59:12;;;;;;;179.40;29.97;;;;;;;0.48;100.00;96986.13;5047713;28;20279;-80
2023/01/25 01:01:40;;;;;;;300.00;35.40;;;;;;;0.33;100.00;96995.13;5034630;28;20308;-79
2023/01/25 01:04:05;;;;;;;177.77;28.00;;;;;;;0.46;100.00;96987.91;5047894;28;20665;-79
2023/01/25 01:06:30;;;;;;;242.80;32.43;;;;;;;0.42;100.00;96991.41;5035109;28;20280;-79
2023/01/25 01:08:56;;;;;;;58.20;24.33;;;;;;;0.52;100.00;96987.66;5045074;28;20192;-80
2023/01/25 01:11:21;;;;;;;320.67;35.37;;;;;;;0.37;100.00;96985.66;5027551;28;20699;-80
2023/01/25 01:13:46;;;;;;;191.67;33.53;;;;;;;0.47;100.00;96985.28;5046534;28;20186;-80
2023/01/25 01:16:12;;;;;;;156.97;27.23;;;;;;;0.51;100.00;96991.94;5035041;28;20185;-79
2023/01/25 01:18:40;;;;;;;333.17;37.40;;;;;;;0.39;100.00;96994.91;5038725;28;20186;-80
2023/01/25 01:21:06;;;;;;;214.83;31.80;;;;;;;0.51;100.00;96980.88;5023568;28;20236;-78
2023/01/25 01:23:33;;;;;;;273.53;33.57;;;;;;;0.43;100.00;96982.88;5037731;28;20729;-79
2023/01/25 01:25:59;;;;;;;178.30;30.57;;;;;;;0.42;100.00;96978.63;5037734;28;20181;-79
2023/01/25 01:28:24;;;;;;;101.13;24.33;;;;;;;0.48;100.00;96973.34;5045182;28;20276;-80
2023/01/25 01:30:49;;;;;;;335.60;38.43;;;;;;;0.46;100.00;96975.13;5038121;28;20686;-79
2023/01/25 01:33:15;;;;;;;531.13;47.67;;;;;;;0.41;100.00;96972.69;5039117;28;20181;-79
2023/01/25 01:35:40;;;;;;;243.73;34.27;;;;;;;0.40;100.00;96975.31;5043580;28;20186;-79
2023/01/25 01:38:05;;;;;;;578.10;50.43;;;;;;;0.34;100.00;96985.72;5044343;28;20189;-79
2023/01/25 01:40:31;;;;;;;141.60;27.63;;;;;;;0.44;100.00;96976.88;5048728;28;20283;-80
2023/01/25 01:42:57;;;;;;;360.03;36.20;;;;;;;0.36;100.00;96982.25;5044900;28;20197;-78
2023/01/25 01:45:51;;;;;;;163.83;27.40;;;;;;;0.50;100.00;96980.06;5051490;28;20185;-80
2023/01/25 01:48:20;;;;;;;491.63;44.70;;;;;;;0.43;100.00;96982.88;5057052;28;20261;-80
2023/01/25 01:50:47;;;;;;;210.50;28.67;;;;;;;0.47;100.00;96981.91;5064296;28;20864;-80
2023/01/25 01:53:12;;;;;;;698.17;57.40;;;;;;;0.33;100.00;96984.06;5044831;28;20190;-80
2023/01/25 01:55:38;;;;;;;238.43;32.37;;;;;;;0.34;100.00;96975.50;5050807;28;20189;-80
2023/01/25 01:58:05;;;;;;;419.67;38.30;;;;;;;0.42;100.00;96976.91;5052922;28;20193;-79
2023/01/25 02:00:37;;;;;;;157.43;27.07;;;;;;;0.48;100.00;96983.56;5056183;28;20205;-80
2023/01/25 02:03:02;;;;;;;657.43;51.40;;;;;;;0.41;100.00;96987.19;5041431;28;20385;-79
2023/01/25 02:05:37;;;;;;;337.50;36.87;;;;;;;0.33;100.00;96989.16;5054317;28;20205;-79
2023/01/25 02:08:04;;;;;;;625.07;53.97;;;;;;;0.27;100.00;96988.50;5057521;28;20195;-79
2023/01/25 02:10:29;;;;;;;328.10;33.10;;;;;;;0.32;100.00;96979.84;5042045;28;20209;-80
2023/01/25 02:12:55;;;;;;;239.43;31.80;;;;;;;0.43;100.00;96978.59;5047395;28;20177;-80
2023/01/25 02:15:21;;;;;;;424.37;40.10;;;;;;;0.43;100.00;96978.59;5056984;28;20279;-79
2023/01/25 02:17:47;;;;;;;271.40;32.87;;;;;;;0.40;100.00;96967.66;5039861;28;20185;-80
2023/01/25 02:20:34;;;;;;;303.60;35.63;;;;;;;0.47;100.00;96964.84;5047699;28;20313;-80
2023/01/25 02:23:05;;;;;;;226.00;29.80;;;;;;;0.45;100.00;96971.72;5037986;28;20221;-80
2023/01/25 02:25:30;;;;;;;397.73;39.93;;;;;;;0.19;100.00;96967.47;5045693;28;20288;-79
2023/01/25 02:28:15;;;;;;;328.20;35.47;;;;;;;0.31;100.00;96962.84;5043104;28;20608;-80
2023/01/25 02:30:41;;;;;;;404.87;39.07;;;;;;;0.23;100.00;96966.47;5053290;28;20720;-80
2023/01/25 02:33:07;;;;;;;129.03;25.07;;;;;;;0.34;100.00;96965.28;5048499;28;20196;-80
2023/01/25 02:35:43;;;;;;;195.63;31.07;;;;;;;0.38;100.00;96962.59;5039701;28;20202;-79
2023/01/25 02:38:11;;;;;;;66.63;23.47;;;;;;;0.49;100.00;96964.78;5046029;28;20673;-79
2023/01/25 02:40:51;;;;;;;263.37;36.30;;;;;;;0.40;100.00;96971.03;5063226;28;20300;-80
2023/01/25 02:43:17;;;;;;;250.20;31.97;;;;;;;0.40;100.00;96952.31;5025453;28;20231;-80
2023/01/25 02:45:45;;;;;;;129.33;28.73;;;;;;;0.43;100.00;96952.19;5042805;28;20799;-79
2023/01/25 02:48:10;;;;;;;264.57;34.47;;;;;;;0.35;100.00;96952.44;5048052;28;20193;-80
2023/01/25 02:50:35;;;;;;;147.03;26.63;;;;;;;0.35;100.00;96955.00;5043052;28;20255;-79
2023/01/25 02:53:01;;;;;;;141.77;28.03;;;;;;;0.43;100.00;96947.09;5041186;28;20178;-79
2023/01/25 02:55:26;;;;;;;430.90;41.93;;;;;;;0.37;100.00;96948.16;5047958;28;20262;-80
2023/01/25 02:57:51;;;;;;;479.97;47.23;;;;;;;0.34;100.00;96948.22;5037031;28;20422;-79
2023/01/25 03:00:17;;;;;;;324.13;36.03;;;;;;;0.34;100.00;96939.72;5042272;28;20210;-80
2023/01/25 03:02:42;;;;;;;348.90;35.40;;;;;;;0.37;100.00;96937.94;5041291;28;20273;-79
2023/01/25 03:05:07;;;;;;;147.47;29.53;;;;;;;0.41;100.00;96941.19;5035245;28;20708;-79
2023/01/25 03:07:33;;;;;;;98.87;24.37;;;;;;;0.45;100.00;96937.66;5037053;28;20184;-79
2023/01/25 03:09:58;;;;;;;91.53;25.00;;;;;;;0.48;100.00;96927.34;5042194;28;20233;-81
2023/01/25 03:12:23;;;;;;;303.50;34.97;;;;;;;0.43;100.00;96929.19;5040546;28;20183;-79
2023/01/25 03:14:48;;;;;;;219.80;32.27;;;;;;;0.44;100.00;96928.31;5051572;28;20193;-79
2023/01/25 03:17:14;;;;;;;54.90;23.00;;;;;;;0.46;100.00;96929.94;5046734;28;20178;-78
2023/01/25 03:19:39;;;;;;;263.13;30.00;;;;;;;0.42;100.00;96930.09;5038299;28;20247;-80
2023/01/25 03:22:05;;;;;;;184.80;26.93;;;;;;;0.50;100.00;96928.09;5036047;28;20194;-79
2023/01/25 03:24:31;;;;;;;50.00;21.97;;;;;;;0.48;100.00;96925.59;5042317;28;20186;-78
2023/01/25 03:27:13;;;;;;;66.53;23.23;;;;;;;0.52;100.00;96919.50;5041739;28;20185;-79
2023/01/25 03:29:39;;;;;;;353.80;38.70;;;;;;;0.43;100.00;96924.09;5047576;28;20223;-80
2023/01/25 03:32:04;;;;;;;199.33;28.20;;;;;;;0.43;100.00;96906.19;5034662;28;20189;-79
2023/01/25 03:34:30;;;;;;;296.97;35.10;;;;;;;0.39;100.00;96917.44;5038975;28;20174;-79
2023/01/25 03:36:55;;;;;;;169.23;29.20;;;;;;;0.45;100.00;96917.22;5039659;28;20197;-80
2023/01/25 03:39:20;;;;;;;110.80;24.83;;;;;;;0.50;100.00;96923.00;5042374;28;20202;-78
2023/01/25 03:41:46;;;;;;;96.87;23.53;;;;;;;0.51;100.00;96924.66;5037201;28;20700;-78
2023/01/25 03:44:11;;;;;;;188.80;32.13;;;;;;;0.52;100.00;96918.66;5053330;28;20575;-78
2023/01/25 03:46:37;;;;;;;334.60;38.90;;;;;;;0.48;100.00;96927.34;5041999;28;20185;-79
2023/01/25 03:49:03;;;;;;;438.33;39.87;;;;;;;0.18;100.00;96922.38;5044444;28;20272;-80
2023/01/25 03:51:28;;;;;;;218.63;29.50;;;;;;;0.39;100.00;96925.91;5047272;28;20683;-78
2023/01/25 03:53:53;;;;;;;312.50;35.77;;;;;;;0.45;100.00;96920.63;5049098;28;20193;-80
2023/01/25 03:56:19;;;;;;;239.30;33.40;;;;;;;0.48;100.00;96923.06;5054448;28;20212;-79
2023/01/25 03:58:45;;;;;;;539.10;48.10;;;;;;;0.44;100.00;96924.06;5056738;28;20178;-78
2023/01/25 04:01:10;;;;;;;387.10;38.90;;;;;;;0.49;100.00;96923.88;5044754;28;20686;-81
2023/01/25 04:03:36;;;;;;;789.10;65.90;;;;;;;0.38;100.00;96920.88;5041684;28;20189;-80
2023/01/25 04:06:02;;;;;;;674.07;51.60;;;;;;;0.35;100.00;96919.22;5054545;28;20670;-79
2023/01/25 04:08:27;;;;;;;181.70;27.90;;;;;;;0.49;100.00;96922.16;5046069;28;20196;-80
2023/01/25 04:11:00;;;;;;;128.33;24.27;;;;;;;0.49;100.00;96919.59;5043073;28;20201;-80
2023/01/25 04:13:25;;;;;;;499.70;47.10;;;;;;;0.36;100.00;96918.38;5041358;28;20235;-80
2023/01/25 04:15:50;;;;;;;507.20;42.63;;;;;;;0.26;100.00;96909.31;5039752;28;20567;-80
2023/01/25 04:18:16;;;;;;;449.10;48.97;;;;;;;0.30;100.00;96912.63;5040676;28;20785;-80
2023/01/25 04:20:42;;;;;;;267.50;27.73;;;;;;;0.30;100.00;96915.19;5047377;28;20209;-78
2023/01/25 04:23:08;;;;;;;534.77;46.77;;;;;;;0.23;100.00;96915.38;5040224;28;20205;-79
2023/01/25 04:25:33;;;;;;;410.43;40.43;;;;;;;0.22;100.00;96912.88;5049499;28;20265;-80
2023/01/25 04:27:58;;;;;;;452.03;37.80;;;;;;;0.24;100.00;96911.94;5039850;28;20577;-79
2023/01/25 04:30:24;;;;;;;186.73;25.83;;;;;;;0.35;100.00;96905.63;5051726;28;20221;-80
2023/01/25 04:32:49;;;;;;;224.87;27.53;;;;;;;0.42;100.00;96904.53;5040751;28;20274;-80
2023/01/25 04:35:15;;;;;;;688.67;56.37;;;;;;;0.31;100.00;96901.50;5042365;28;20200;-79
2023/01/25 04:37:41;;;;;;;485.03;44.07;;;;;;;0.33;100.00;96907.41;5042704;28;20196;-78
2023/01/25 04:40:07;;;;;;;493.57;48.43;;;;;;;0.40;100.00;96896.91;5063893;28;20193;-78
2023/01/25 04:42:33;;;;;;;511.17;47.37;;;;;;;0.41;100.00;96900.31;5060844;28;20214;-77
2023/01/25 04:44:58;;;;;;;394.73;36.33;;;;;;;0.40;100.00;96888.41;5068207;28;20250;-79
2023/01/25 04:47:23;;;;;;;123.77;23.27;;;;;;;0.35;100.00;96891.13;5072744;28;20204;-78
2023/01/25 04:49:49;;;;;;;96.07;21.30;;;;;;;0.43;100.00;96896.81;5054373;28;20221;-79
2023/01/25 04:52:14;;;;;;;60.87;18.90;;;;;;;0.43;100.00;96901.09;5051490;28;20709;-79
2023/01/25 04:54:39;;;;;;;352.00;34.33;;;;;;;0.37;100.00;96898.75;5049697;28;20641;-80
2023/01/25 04:57:04;;;;;;;181.87;25.07;;;;;;;0.41;100.00;96892.63;5050373;28;20189;-80
2023/01/25 04:59:30;;;;;;;269.20;27.70;;;;;;;0.46;100.00;96898.44;5039593;28;20201;-80
2023/01/25 05:01:55;;;;;;;162.17;24.80;;;;;;;0.35;100.00;96896.22;5051140;28;20668;-80
2023/01/25 05:04:20;;;;;;;557.63;42.67;;;;;;;0.30;100.00;96898.13;5052640;28;20238;-79
2023/01/25 05:06:46;;;;;;;163.87;22.73;;;;;;;0.29;100.00;96891.34;5043858;28;20212;-79
2023/01/25 05:09:11;;;;;;;308.83;30.83;;;;;;;0.26;100.00;96889.72;5043124;28;20183;-80
2023/01/25 05:11:36;;;;;;;328.97;31.70;;;;;;;0.28;100.00;96877.75;5045479;28;20739;-80
2023/01/25 05:14:01;;;;;;;292.77;28.73;;;;;;;0.33;100.00;96885.22;5040163;28;20204;-79
2023/01/25 05:16:27;;;;;;;376.40;33.80;;;;;;;0.27;100.00;96882.91;5039412;28;20231;-79
2023/01/25 05:18:54;;;;;;;416.53;36.87;;;;;;;0.32;100.00;96883.56;5042535;28;20176;-78
2023/01/25 05:24:03;;;;;;;233.73;27.53;;;;;;;0.33;100.00;96885.22;5042858;28;20208;-80
2023/01/25 05:29:13;;;;;;;571.70;52.87;;;;;;;0.27;100.00;96881.19;5046791;28;20223;-79
2023/01/25 05:31:38;;;;;;;345.30;33.03;;;;;;;0.12;100.00;96883.44;5048793;28;20205;-79
2023/01/25 05:34:03;;;;;;;302.90;29.97;;;;;;;0.26;100.00;96884.59;5045113;28;20661;-80
2023/01/25 05:36:28;;;;;;;309.40;36.93;;;;;;;0.27;100.00;96888.84;5039540;28;20234;-79
2023/01/25 05:38:54;;;;;;;298.20;36.10;;;;;;;0.29;100.00;96888.78;5049556;28;20209;-80
2023/01/25 05:41:19;;;;;;;107.10;22.13;;;;;;;0.24;100.00;96881.28;5051721;28;20208;-79
2023/01/25 05:43:48;;;;;;;90.40;21.13;;;;;;;0.35;100.00;96887.72;5021302;28;20235;-79
2023/01/25 05:46:13;;;;;;;157.60;23.20;;;;;;;0.38;100.00;96892.75;5022499;28;20395;-78
2023/01/25 05:48:39;;;;;;;225.20;28.53;;;;;;;0.32;100.00;96891.22;5050381;28;20677;-78
2023/01/25 05:51:04;;;;;;;206.67;27.43;;;;;;;0.28;100.00;96885.41;5020972;28;20244;-79
2023/01/25 05:53:30;;;;;;;51.43;19.40;;;;;;;0.42;100.00;96897.69;5033132;28;20693;-79
2023/01/25 05:55:55;;;;;;;204.97;31.63;;;;;;;0.40;100.00;96885.88;5042468;28;20188;-79
2023/01/25 05:58:20;;;;;;;162.63;29.80;;;;;;;0.33;100.00;96887.78;5024066;28;20189;-80
2023/01/25 06:00:45;;;;;;;122.30;24.27;;;;;;;0.17;100.00;96878.97;5034456;28;20212;-79
2023/01/25 06:03:11;;;;;;;348.63;37.53;;;;;;;0.09;100.00;96879.25;5045214;28;20217;-80
2023/01/25 06:05:36;;;;;;;131.67;25.47;;;;;;;0.32;100.00;96877.63;5048729;28;20200;-79
2023/01/25 06:08:01;;;;;;;103.03;21.87;;;;;;;0.32;100.00;96877.63;5034260;28;20291;-80
2023/01/25 06:10:27;;;;;;;38.67;19.73;;;;;;;0.43;100.00;96873.81;5042930;28;20237;-79
2023/01/25 06:12:58;;;;;;;64.70;21.60;;;;;;;0.47;100.00;96872.81;5048532;28;20657;-80
2023/01/25 06:15:24;;;;;;;112.63;21.20;;;;;;;0.28;100.00;96866.69;5053609;28;20186;-80
2023/01/25 06:17:53;;;;;;;37.57;16.93;;;;;;;0.31;100.00;96865.75;5040089;28;20246;-81
2023/01/25 06:20:19;;;;;;;38.87;19.57;;;;;;;0.38;100.00;96857.81;5046555;28;20213;-80
2023/01/25 06:22:48;;;;;;;38.80;18.70;;;;;;;0.21;100.00;96860.94;5048736;28;20220;-80
2023/01/25 06:25:14;;;;;;;38.50;20.10;;;;;;;0.35;100.00;96862.19;5044749;28;20229;-80
2023/01/25 06:27:39;;;;;;;58.00;21.50;;;;;;;0.36;100.00;96854.47;5049947;28;20189;-79
2023/01/25 06:30:05;;;;;;;37.47;18.30;;;;;;;0.42;100.00;96861.09;5039242;28;20208;-80
2023/01/25 06:32:31;;;;;;;36.53;18.57;;;;;;;0.43;100.00;96855.09;5036848;28;20182;-80
2023/01/25 06:34:56;;;;;;;40.20;20.67;;;;;;;0.44;100.00;96849.94;5040996;28;20186;-81
2023/01/25 06:37:22;;;;;;;116.27;31.13;;;;;;;0.40;100.00;96850.09;5034471;28;20240;-80
2023/01/25 06:39:47;;;;;;;154.77;28.27;;;;;;;0.30;100.00;96849.56;5047230;28;20653;-80
2023/01/25 06:42:12;;;;;;;51.60;18.53;;;;;;;0.42;100.00;96854.25;5034753;28;20228;-81
2023/01/25 06:44:37;;;;;;;153.20;23.00;;;;;;;0.32;100.00;96847.78;5041183;28;20183;-80
2023/01/25 06:47:03;;;;;;;195.17;25.37;;;;;;;0.24;100.00;96845.50;5046260;28;20185;-80
2023/01/25 06:49:28;;;;;;;146.27;24.63;;;;;;;0.31;100.00;96848.69;5042636;28;20200;-81
2023/01/25 06:51:53;;;;;;;35.77;17.17;;;;;;;0.33;100.00;96841.78;5036631;28;20554;-81
2023/01/25 06:54:19;;;;;;;33.73;17.37;;;;;;;0.35;100.00;96841.75;5044793;28;20181;-82
2023/01/25 06:56:44;;;;;;;28.87;16.27;;;;;;;0.44;100.00;96838.84;5043365;28;20197;-80
2023/01/25 06:59:09;;;;;;;34.30;16.83;;;;;;;0.34;100.00;96842.63;5031195;28;20213;-81
2023/01/25 07:01:36;;;;;;;26.73;14.00;;;;;;;0.26;100.00;96837.78;5044426;28;20232;-79
2023/01/25 07:04:01;;;;;;;30.70;16.03;;;;;;;0.26;100.00;96830.94;5047275;28;20177;-80
2023/01/25 07:06:31;;;;;;;31.33;15.53;;;;;;;0.44;100.00;96843.97;5045568;28;20189;-80
2023/01/25 07:09:02;;;;;;;30.63;16.07;;;;;;;0.27;100.00;96837.75;5033423;28;20193;-81
2023/01/25 07:11:27;;;;;;;26.87;15.63;;;;;;;0.29;100.00;96835.13;5035723;28;20571;-81
2023/01/25 07:13:52;;;;;;;31.20;17.13;;;;;;;0.26;100.00;96837.78;5034692;28;20186;-81
2023/01/25 07:16:19;;;;;;;31.63;16.37;;;;;;;0.34;100.00;96846.00;5037549;28;20186;-81
2023/01/25 07:18:44;;;;;;;31.17;16.83;;;;;;;0.17;100.00;96838.94;5033102;28;20267;-79
2023/01/25 07:21:13;;;;;;;30.17;16.40;;;;;;;0.30;100.00;96835.97;5039814;28;21014;-80
2023/01/25 07:23:40;;;;;;;31.77;16.50;;;;;;;0.27;100.00;96837.75;5031220;28;20551;-80
2023/01/25 07:26:20;;;;;;;30.53;15.97;;;;;;;0.28;100.00;96834.31;5047944;28;20185;-81
2023/01/25 07:28:46;;;;;;;32.57;15.60;;;;;;;0.33;100.00;96829.03;5045950;28;20195;-80
2023/01/25 07:31:11;;;;;;;31.00;16.93;;;;;;;0.36;100.00;96839.16;5039649;28;20205;-81
2023/01/25 07:33:36;;;;;;;30.90;16.60;;;;;;;0.42;100.00;96838.91;5042223;28;20186;-80
2023/01/25 07:36:03;;;;;;;33.50;16.63;;;;;;;0.27;100.00;96829.25;5034149;28;20910;-81
2023/01/25 07:38:28;;;;;;;30.20;15.43;;;;;;;0.42;100.00;96833.81;5040605;28;20248;-81
2023/01/25 07:40:53;;;;;;;32.60;16.60;;;;;;;0.39;100.00;96827.97;5033490;28;20810;-80
2023/01/25 07:43:19;;;;;;;31.70;16.70;;;;;;;0.38;100.00;96826.31;5032475;28;20202;-80
2023/01/25 07:45:47;;;;;;;32.13;16.53;;;;;;;0.44;100.00;96823.53;5037598;28;20224;-80
2023/01/25 07:48:13;;;;;;;29.17;16.07;;;;;;;0.50;100.00;96836.09;5043166;28;20280;-81
2023/01/25 07:50:40;;;;;;;28.70;15.33;;;;;;;0.28;100.00;96829.19;5031070;28;20746;-81
2023/01/25 07:53:05;;;;;;;29.93;16.10;;;;;;;0.39;100.00;96830.53;5039559;28;20177;-81
2023/01/25 07:55:31;;;;;;;30.33;16.50;;;;;;;0.46;100.00;96832.81;5040605;28;20186;-80
2023/01/25 07:57:56;;;;;;;30.67;16.87;;;;;;;0.53;100.00;96829.16;5042768;28;20189;-81
2023/01/25 08:00:21;;;;;;;31.77;16.77;;;;;;;0.55;100.00;96831.66;5031227;28;20254;-80
2023/01/25 08:02:50;;;;;;;34.30;16.90;;;;;;;0.40;100.00;96821.97;5038473;28;20233;-80
2023/01/25 08:05:15;;;;;;;31.27;17.30;;;;;;;0.40;100.00;96825.38;5028822;28;20208;-80
2023/01/25 08:07:41;;;;;;;31.63;17.77;;;;;;;0.52;100.00;96829.19;5047281;28;20190;-81
2023/01/25 08:10:06;;;;;;;42.43;23.97;;;;;;;0.37;100.00;96829.75;5038661;28;20804;-81
2023/01/25 08:12:33;;;;;;;35.70;19.17;;;;;;;0.47;100.00;96831.09;5043114;28;20662;-81
2023/01/25 08:14:59;;;;;;;37.30;22.70;;;;;;;0.48;100.00;96828.47;5044692;28;20189;-79
2023/01/25 08:17:30;;;;;;;36.73;21.03;;;;;;;0.31;100.00;96835.09;5036296;28;20196;-78
2023/01/25 08:19:56;;;;;;;35.87;18.17;;;;;;;0.20;100.00;96831.19;5036262;28;20213;-81
2023/01/25 08:22:21;;;;;;;34.30;17.33;;;;;;;0.43;100.00;96840.56;5034446;28;20559;-79
2023/01/25 08:24:46;;;;;;;31.43;18.47;;;;;;;0.42;100.00;96838.09;5031713;28;20609;-80
2023/01/25 08:27:11;;;;;;;44.70;20.87;;;;;;;0.40;100.00;96835.59;5039251;28;20544;-80
2023/01/25 08:29:37;;;;;;;34.83;18.53;;;;;;;0.62;100.00;96833.09;5044726;28;20181;-80
2023/01/25 08:32:04;;;;;;;35.23;18.07;;;;;;;0.48;100.00;96840.44;5025925;28;20205;-79
2023/01/25 08:34:31;;;;;;;29.63;16.57;;;;;;;0.60;100.00;96841.69;5035296;28;20190;-80
2023/01/25 08:36:56;;;;;;;30.40;16.20;;;;;;;0.53;100.00;96834.28;5037244;28;20277;-81
2023/01/25 08:39:21;;;;;;;25.13;15.77;;;;;;;0.67;100.00;96833.75;5045493;28;20225;-80
2023/01/25 08:41:47;;;;;;;30.40;16.83;;;;;;;0.49;100.00;96822.47;5048895;28;20606;-79
2023/01/25 08:44:12;;;;;;;30.87;17.73;;;;;;;0.46;100.00;96826.88;5038417;28;20247;-78
2023/01/25 08:46:38;;;;;;;32.57;18.23;;;;;;;0.55;100.00;96818.88;5039416;28;20201;-78
2023/01/25 08:49:03;;;;;;;35.93;19.93;;;;;;;0.56;100.00;96823.94;5040378;28;20260;-80
2023/01/25 08:51:30;;;;;;;29.23;16.67;;;;;;;0.40;100.00;96821.97;5047914;28;20712;-79
2023/01/25 08:53:55;;;;;;;33.77;16.47;;;;;;;0.55;100.00;96821.44;5042812;28;20261;-79
2023/01/25 08:56:21;;;;;;;30.60;16.43;;;;;;;0.58;100.00;96813.66;5045312;28;20199;-79
2023/01/25 08:58:47;;;;;;;31.13;19.10;;;;;;;0.45;100.00;96813.28;5035306;28;20214;-80
2023/01/25 09:01:15;;;;;;;34.17;17.80;;;;;;;0.70;100.00;96807.25;5034057;28;20232;-80
2023/01/25 09:03:45;;;;;;;33.40;17.87;;;;;;;0.38;100.00;96808.44;5016441;28;20213;-79
2023/01/25 09:06:11;;;;;;;32.90;17.57;;;;;;;0.36;100.00;96805.09;5044083;28;20217;-80
2023/01/25 09:08:36;;;;;;;30.60;17.17;;;;;;;0.54;100.00;96810.38;5082010;28;20662;-79
2023/01/25 09:11:07;;;;;;;28.00;16.83;;;;;;;0.78;100.00;96803.50;5043511;28;20209;-80
2023/01/25 09:13:32;;;;;;;26.93;16.33;;;;;;;0.73;100.00;96807.16;5048099;28;20248;-79
2023/01/25 09:16:02;;;;;;;32.27;16.93;;;;;;;0.70;100.00;96808.06;5024329;28;20736;-80
2023/01/25 09:18:28;;;;;;;30.70;16.13;;;;;;;0.72;100.00;96806.31;5036146;28;20637;-80
2023/01/25 09:20:54;;;;;;;32.27;17.00;;;;;;;0.84;100.00;96805.00;5040626;28;20252;-79
2023/01/25 09:23:21;;;;;;;28.67;17.37;;;;;;;0.73;100.00;96799.47;5040843;28;20202;-79
2023/01/25 09:25:47;;;;;;;33.03;17.97;;;;;;;0.58;100.00;96798.31;5033815;28;20209;-80
2023/01/25 09:28:12;;;;;;;29.20;15.17;;;;;;;0.77;100.00;96804.41;5042040;28;20189;-81
2023/01/25 09:30:38;;;;;;;29.90;16.53;;;;;;;0.44;100.00;96795.41;5045584;28;20209;-78
2023/01/25 09:33:03;;;;;;;28.70;15.20;;;;;;;0.48;100.00;96800.38;5032548;28;20235;-81
2023/01/25 09:35:29;;;;;;;29.53;15.60;;;;;;;0.73;100.00;96790.06;5048381;28;20217;-79
2023/01/25 09:37:55;;;;;;;24.37;15.23;;;;;;;0.66;100.00;96795.47;5044507;28;20262;-79
2023/01/25 09:40:21;;;;;;;27.33;15.60;;;;;;;0.59;100.00;96801.69;5044505;28;20677;-79
2023/01/25 09:42:57;;;;;;;23.33;13.83;;;;;;;0.46;100.00;96807.25;5041597;28;20235;-80
2023/01/25 09:45:35;;;;;;;25.43;14.97;;;;;;;0.73;98.92;96797.75;5049348;28;20196;-80
2023/01/25 09:48:41;;;;;;;25.50;15.53;;;;;;;0.60;99.49;96801.63;5034991;28;20578;-79
2023/01/25 09:51:21;;;;;;;25.07;14.60;;;;;;;0.77;98.73;96806.97;4978233;28;20215;-79
2023/01/25 09:53:48;;;;;;;24.60;15.53;;;;;;;0.71;99.31;96807.22;4958430;28;20196;-80
2023/01/25 09:56:25;;;;;;;26.90;14.83;;;;;;;0.78;99.75;96807.78;4975171;28;20198;-79
2023/01/25 09:59:02;;;;;;;31.00;15.60;;;;;;;0.59;98.54;96801.69;4960669;28;20189;-80
2023/01/25 10:01:46;;;;;;;24.90;14.53;;;;;;;0.76;99.23;96795.06;4973745;28;20206;-79
2023/01/25 10:04:25;;;;;;;27.33;15.10;;;;;;;0.82;99.00;96804.25;4978464;28;20218;-80
2023/01/25 10:06:52;;;;;;;24.50;14.40;;;;;;;0.80;98.62;96799.19;4973304;28;20249;-79
2023/01/25 10:09:18;;;;;;;24.33;15.00;;;;;;;0.83;98.49;96796.50;4958488;28;20321;-80
2023/01/25 10:11:43;;;;;;;20.93;13.33;;;;;;;0.82;98.59;96794.84;4985295;28;20726;-80
2023/01/25 10:14:16;;;;;;;22.47;13.47;;;;;;;0.89;98.07;96792.06;4975566;28;20195;-79
2023/01/25 10:16:44;;;;;;;24.83;14.53;;;;;;;0.98;97.58;96791.72;4975190;28;20207;-79
2023/01/25 10:19:29;;;;;;;26.50;14.97;;;;;;;0.78;98.02;96795.00;4988593;28;20198;-79
2023/01/25 10:22:10;;;;;;;23.70;13.73;;;;;;;0.83;97.45;96783.72;4995024;28;20272;-80
2023/01/25 10:24:52;;;;;;;25.00;14.90;;;;;;;0.80;97.32;96775.34;5046631;28;20263;-77
2023/01/25 10:27:36;;;;;;;28.13;15.07;;;;;;;0.61;98.56;96776.91;5043848;28;20276;-79
2023/01/25 10:30:31;;;;;;;25.83;14.53;;;;;;;0.53;98.94;96775.50;5029592;28;20808;-79
2023/01/25 10:33:04;;;;;;;23.97;14.63;;;;;;;0.62;99.66;96773.44;5034716;28;20332;-79
2023/01/25 10:35:35;;;;;;;23.03;16.10;;;;;;;0.64;98.19;96772.53;5042850;28;20234;-78
2023/01/25 10:38:06;;;;;;;23.63;14.57;;;;;;;0.90;97.09;96773.28;5035870;28;20190;-78
2023/01/25 10:40:40;;;;;;;25.00;14.93;;;;;;;0.98;97.52;96754.19;5038765;28;20213;-79
2023/01/25 10:43:14;;;;;;;20.83;13.23;;;;;;;0.81;97.28;96759.94;5026516;28;20201;-78
2023/01/25 10:45:42;;;;;;;22.33;13.63;;;;;;;0.88;96.85;96759.69;5034096;28;20273;-79
2023/01/25 10:48:13;;;;;;;22.73;15.33;;;;;;;0.88;97.23;96755.41;5044953;28;20249;-78
2023/01/25 10:50:41;;;;;;;38.50;21.37;;;;;;;0.87;96.96;96752.91;5041336;28;20213;-79
2023/01/25 10:53:26;;;;;;;34.70;20.67;;;;;;;0.75;96.86;96759.34;5040385;28;20188;-79
2023/01/25 10:55:54;;;;;;;33.87;22.17;;;;;;;0.34;99.34;96748.09;5042179;28;20772;-78
2023/01/25 10:58:55;;;;;;;39.03;25.47;;;;;;;0.67;98.06;96746.00;5045967;28;20204;-79
2023/01/25 11:01:27;;;;;;;29.70;17.17;;;;;;;0.54;98.21;96743.91;4986089;28;20690;-79
2023/01/25 11:03:52;;;;;;;24.93;15.23;;;;;;;0.56;97.88;96746.41;4989311;28;20203;-79
2023/01/25 11:06:29;;;;;;;21.90;12.67;;;;;;;0.78;96.76;96739.56;4987266;28;20198;-78
2023/01/25 11:08:54;;;;;;;25.90;15.47;;;;;;;0.87;95.80;96743.50;4982738;28;20199;-79
2023/01/25 11:11:35;;;;;;;22.37;13.30;;;;;;;0.47;96.77;96739.09;4988939;28;20229;-78
2023/01/25 11:14:00;;;;;;;25.90;17.40;;;;;;;0.61;97.22;96741.94;4992062;28;20551;-79
2023/01/25 11:16:36;;;;;;;25.73;16.60;;;;;;;0.71;96.59;96733.06;4981638;28;20202;-79
2023/01/25 11:19:02;;;;;;;28.07;19.77;;;;;;;0.87;96.14;96735.84;4986505;28;20206;-79
2023/01/25 11:21:32;;;;;;;29.23;19.87;;;;;;;0.98;95.42;96726.03;4993137;28;20275;-79